Time;durP1;ratioP1;P1;durP2;ratioP2;P2;SDS_P1;SDS_P2;PMS_P1;PMS_P2;Temp;Humidity;BMP_temperature;BMP_pressure;BME280_temperature;BME280_humidity;BME280_pressure;Samples;Min_cycle;Max_cycle;Signal;HPM_P1;HPM_P2
2023/10/07 00:01:11;;;;;;;;;17.75;12.25;;;;;;;;5076372;28;45596;-69
2023/10/07 00:03:38;;;;;;;;;21.00;17.75;;;;;;;;5076604;28;45353;-68
2023/10/07 00:06:08;;;;;;;;;21.00;17.50;;;;;;;;5086890;27;45506;-68
2023/10/07 00:08:34;;;;;;;;;14.50;13.00;;;;;;;;5097021;27;45346;-68
2023/10/07 00:11:00;;;;;;;;;19.25;17.50;;;;;;;;5077230;27;46655;-68
2023/10/07 00:13:30;;;;;;;;;23.75;18.00;;;;;;;;5096397;27;45405;-68
2023/10/07 00:15:55;;;;;;;;;19.50;16.75;;;;;;;;5095723;27;45408;-68
2023/10/07 00:18:22;;;;;;;;;15.75;15.75;;;;;;;;5096651;27;45364;-68
2023/10/07 00:20:50;;;;;;;;;20.25;19.50;;;;;;;;5095950;27;47219;-68
2023/10/07 00:23:22;;;;;;;;;22.75;21.75;;;;;;;;5096372;27;45364;-68
2023/10/07 00:25:51;;;;;;;;;19.50;18.50;;;;;;;;5096213;27;45463;-68
2023/10/07 00:28:18;;;;;;;;;19.25;17.50;;;;;;;;5096279;27;45615;-68
2023/10/07 00:30:45;;;;;;;;;23.00;19.75;;;;;;;;5096215;27;46341;-68
2023/10/07 00:33:11;;;;;;;;;24.75;21.25;;;;;;;;5095977;27;45434;-68
2023/10/07 00:35:37;;;;;;;;;19.00;18.75;;;;;;;;5096083;27;45396;-68
2023/10/07 00:38:02;;;;;;;;;23.00;20.75;;;;;;;;5096320;27;45426;-68
2023/10/07 00:42:56;;;;;;;;;25.50;21.25;;;;;;;;5095933;27;45393;-68
2023/10/07 00:45:24;;;;;;;;;19.00;18.50;;;;;;;;5096040;27;45390;-68
2023/10/07 00:47:49;;;;;;;;;22.50;20.50;;;;;;;;5096006;27;45467;-68
2023/10/07 00:50:16;;;;;;;;;5.50;4.75;;;;;;;;5095252;27;45459;-69
2023/10/07 00:55:29;;;;;;;;;23.50;22.50;;;;;;;;5095952;27;45479;-68
2023/10/07 01:00:56;;;;;;;;;28.50;24.25;;;;;;;;5081959;27;46140;-68
2023/10/07 01:05:55;;;;;;;;;18.50;17.25;;;;;;;;5086055;27;45486;-67
2023/10/07 01:08:27;;;;;;;;;21.25;19.50;;;;;;;;5056742;28;45420;-68
2023/10/07 01:11:06;;;;;;;;;20.50;18.50;;;;;;;;5075635;28;45476;-68
2023/10/07 01:13:32;;;;;;;;;22.75;22.25;;;;;;;;5056978;28;45885;-68
2023/10/07 01:15:59;;;;;;;;;21.00;16.50;;;;;;;;5075528;28;45407;-68
2023/10/07 01:18:24;;;;;;;;;18.25;14.00;;;;;;;;5075523;28;45517;-68
2023/10/07 01:23:19;;;;;;;;;16.50;15.25;;;;;;;;5057429;28;45472;-68
2023/10/07 01:25:44;;;;;;;;;19.50;18.00;;;;;;;;5057273;28;45820;-68
2023/10/07 01:28:14;;;;;;;;;20.50;16.75;;;;;;;;5075052;28;45365;-68
2023/10/07 01:30:43;;;;;;;;;18.75;18.00;;;;;;;;5074639;28;45642;-68
2023/10/07 01:33:16;;;;;;;;;21.00;19.50;;;;;;;;5075174;28;45314;-68
2023/10/07 01:36:06;;;;;;;;;21.00;18.25;;;;;;;;5074922;28;45362;-68
2023/10/07 01:38:28;;;;;;;;;21.25;18.00;;;;;;;;5074872;28;45471;-68
2023/10/07 01:40:55;;;;;;;;;17.00;15.75;;;;;;;;5074914;28;46278;-68
2023/10/07 01:43:20;;;;;;;;;19.00;17.75;;;;;;;;5074816;28;45469;-68
2023/10/07 01:45:48;;;;;;;;;20.25;18.75;;;;;;;;5075127;28;45427;-68
2023/10/07 01:48:17;;;;;;;;;17.25;16.75;;;;;;;;5074630;28;45411;-68
2023/10/07 01:50:44;;;;;;;;;24.75;21.50;;;;;;;;5074154;28;45538;-68
2023/10/07 01:53:11;;;;;;;;;21.25;18.25;;;;;;;;5074579;28;45632;-68
2023/10/07 01:55:48;;;;;;;;;24.25;17.75;;;;;;;;5075053;28;45399;-68
2023/10/07 01:58:14;;;;;;;;;23.25;19.50;;;;;;;;5074541;28;45342;-68
2023/10/07 02:00:44;;;;;;;;;20.75;17.25;;;;;;;;5056493;28;47214;-68
2023/10/07 02:03:13;;;;;;;;;22.50;18.25;;;;;;;;5074921;28;45538;-68
2023/10/07 02:05:46;;;;;;;;;16.00;15.00;;;;;;;;5063500;27;45520;-68
2023/10/07 02:08:14;;;;;;;;;18.50;15.75;;;;;;;;5095076;27;45576;-68
2023/10/07 02:10:42;;;;;;;;;21.00;19.50;;;;;;;;5094929;27;45506;-68
2023/10/07 02:13:14;;;;;;;;;20.75;19.75;;;;;;;;5095067;27;45386;-68
2023/10/07 02:15:42;;;;;;;;;21.50;18.25;;;;;;;;5095271;27;45325;-68
2023/10/07 02:18:15;;;;;;;;;18.50;18.50;;;;;;;;5094906;27;45332;-68
2023/10/07 02:20:43;;;;;;;;;19.25;16.50;;;;;;;;5094163;27;46420;-68
2023/10/07 02:23:12;;;;;;;;;15.50;15.25;;;;;;;;5094355;27;45357;-68
2023/10/07 02:25:40;;;;;;;;;21.50;20.00;;;;;;;;5094984;27;45448;-68
2023/10/07 02:28:06;;;;;;;;;16.75;16.00;;;;;;;;5095065;27;45298;-68
2023/10/07 02:30:38;;;;;;;;;22.00;21.25;;;;;;;;5076146;27;47018;-68
2023/10/07 02:33:07;;;;;;;;;17.25;17.25;;;;;;;;5094921;27;45445;-68
2023/10/07 02:35:33;;;;;;;;;19.75;18.25;;;;;;;;5094642;27;45439;-68
2023/10/07 02:38:03;;;;;;;;;21.50;21.50;;;;;;;;5094802;27;45376;-68
2023/10/07 02:40:48;;;;;;;;;22.25;17.50;;;;;;;;5097570;27;45471;-68
2023/10/07 02:43:15;;;;;;;;;20.00;17.25;;;;;;;;5098400;27;45407;-68
2023/10/07 02:45:44;;;;;;;;;18.75;16.75;;;;;;;;5098643;27;45313;-68
2023/10/07 02:48:12;;;;;;;;;18.00;16.50;;;;;;;;5098029;27;45366;-68
2023/10/07 02:50:42;;;;;;;;;17.25;17.25;;;;;;;;5097773;27;45715;-68
2023/10/07 02:53:13;;;;;;;;;18.50;18.50;;;;;;;;5097527;27;45442;-68
2023/10/07 02:56:16;;;;;;;;;18.50;17.00;;;;;;;;5098020;27;45352;-68
2023/10/07 02:58:36;;;;;;;;;18.75;16.25;;;;;;;;5094613;27;45413;-68
2023/10/07 03:01:13;;;;;;;;;17.00;17.00;;;;;;;;5097514;27;45505;-68
2023/10/07 03:03:40;;;;;;;;;18.50;17.00;;;;;;;;5097778;27;45503;-68
2023/10/07 03:06:07;;;;;;;;;17.75;17.00;;;;;;;;5086540;27;45424;-68
2023/10/07 03:08:50;;;;;;;;;22.75;18.00;;;;;;;;5077278;28;45546;-68
2023/10/07 03:11:21;;;;;;;;;17.00;17.00;;;;;;;;5077274;28;45482;-68
2023/10/07 03:13:49;;;;;;;;;19.00;17.25;;;;;;;;5077147;28;45307;-68
2023/10/07 03:18:55;;;;;;;;;15.50;12.75;;;;;;;;5077010;28;45440;-68
2023/10/07 03:21:21;;;;;;;;;19.75;18.50;;;;;;;;5076762;28;47140;-68
2023/10/07 03:23:58;;;;;;;;;20.75;18.25;;;;;;;;5077047;28;45370;-68
2023/10/07 03:26:24;;;;;;;;;18.50;17.75;;;;;;;;5077523;28;45488;-68
2023/10/07 03:28:55;;;;;;;;;19.75;19.00;;;;;;;;5077069;28;45397;-68
2023/10/07 03:31:47;;;;;;;;;19.75;19.50;;;;;;;;5058305;28;46700;-68
2023/10/07 03:34:12;;;;;;;;;19.75;17.75;;;;;;;;5076136;28;45452;-67
2023/10/07 03:36:41;;;;;;;;;17.00;15.25;;;;;;;;5076238;28;45519;-68
2023/10/07 03:41:47;;;;;;;;;18.00;17.50;;;;;;;;5076624;28;46136;-68
2023/10/07 03:44:19;;;;;;;;;19.75;18.25;;;;;;;;5076791;28;45411;-68
2023/10/07 03:46:47;;;;;;;;;22.50;20.00;;;;;;;;5076453;28;45372;-68
2023/10/07 03:49:12;;;;;;;;;14.25;14.00;;;;;;;;5076238;28;45449;-68
2023/10/07 03:51:37;;;;;;;;;18.00;16.25;;;;;;;;5075851;28;45388;-68
2023/10/07 03:54:15;;;;;;;;;18.50;14.50;;;;;;;;5075866;28;45559;-68
2023/10/07 03:56:41;;;;;;;;;18.75;17.25;;;;;;;;5076146;28;45422;-68
2023/10/07 03:59:06;;;;;;;;;21.50;19.00;;;;;;;;5076394;28;45622;-68
2023/10/07 04:01:32;;;;;;;;;17.25;15.50;;;;;;;;5057865;28;47259;-68
2023/10/07 04:03:59;;;;;;;;;19.50;17.75;;;;;;;;5076121;28;45378;-68
2023/10/07 04:06:31;;;;;;;;;18.25;17.75;;;;;;;;5089239;27;45487;-67
2023/10/07 04:09:05;;;;;;;;;22.75;19.50;;;;;;;;5096115;27;45320;-68
2023/10/07 04:11:31;;;;;;;;;20.25;18.00;;;;;;;;5096619;27;46068;-68
2023/10/07 04:13:56;;;;;;;;;22.75;20.75;;;;;;;;5078318;27;45561;-68
2023/10/07 04:16:23;;;;;;;;;21.25;19.75;;;;;;;;5096808;27;45392;-68
2023/10/07 04:18:53;;;;;;;;;19.00;17.75;;;;;;;;5096851;27;45353;-68
2023/10/07 04:21:18;;;;;;;;;22.75;19.75;;;;;;;;5096271;27;46644;-68
2023/10/07 04:23:46;;;;;;;;;19.25;19.00;;;;;;;;5096723;27;45384;-68
2023/10/07 04:26:19;;;;;;;;;22.25;18.00;;;;;;;;5096865;27;45369;-68
2023/10/07 04:28:48;;;;;;;;;23.25;20.50;;;;;;;;5096363;27;45476;-68
2023/10/07 04:31:13;;;;;;;;;18.00;17.75;;;;;;;;5096331;27;46219;-68
2023/10/07 04:33:46;;;;;;;;;22.00;18.50;;;;;;;;5096111;27;45351;-68
2023/10/07 04:36:13;;;;;;;;;20.75;20.50;;;;;;;;5096249;27;45449;-68
2023/10/07 04:38:56;;;;;;;;;14.75;14.25;;;;;;;;5096391;27;45396;-68
2023/10/07 04:43:49;;;;;;;;;20.00;19.00;;;;;;;;5095659;27;45503;-68
2023/10/07 04:46:24;;;;;;;;;23.50;21.50;;;;;;;;5096383;27;45315;-68
2023/10/07 04:51:47;;;;;;;;;21.00;19.50;;;;;;;;5081791;27;45895;-67
2023/10/07 04:54:20;;;;;;;;;19.00;18.50;;;;;;;;5095976;27;45495;-68
2023/10/07 04:56:51;;;;;;;;;28.50;25.50;;;;;;;;5096383;27;45585;-68
2023/10/07 04:59:17;;;;;;;;;25.00;21.50;;;;;;;;5095880;27;45381;-68
2023/10/07 05:01:47;;;;;;;;;22.25;22.25;;;;;;;;5095272;27;45990;-69
2023/10/07 05:04:15;;;;;;;;;25.25;25.25;;;;;;;;5095729;27;45465;-68
2023/10/07 05:06:42;;;;;;;;;19.00;18.50;;;;;;;;5079573;27;45295;-68
2023/10/07 05:09:18;;;;;;;;;27.25;21.50;;;;;;;;5075550;28;45240;-68
2023/10/07 05:11:45;;;;;;;;;17.50;17.00;;;;;;;;5056535;28;47310;-69
2023/10/07 05:14:11;;;;;;;;;20.25;19.50;;;;;;;;5075065;28;45448;-68
2023/10/07 05:16:37;;;;;;;;;21.25;20.75;;;;;;;;5075403;28;45348;-68
2023/10/07 05:19:03;;;;;;;;;19.50;18.50;;;;;;;;5075165;28;45429;-68
2023/10/07 05:21:31;;;;;;;;;21.75;21.00;;;;;;;;5074770;28;45447;-68
2023/10/07 05:24:01;;;;;;;;;20.50;18.00;;;;;;;;5075016;28;45330;-67
2023/10/07 05:26:27;;;;;;;;;19.25;17.00;;;;;;;;5075123;28;45434;-67
2023/10/07 05:28:52;;;;;;;;;18.50;18.25;;;;;;;;5074850;28;45429;-68
2023/10/07 05:31:17;;;;;;;;;19.25;15.50;;;;;;;;5074537;28;46220;-68
2023/10/07 05:33:43;;;;;;;;;22.50;20.75;;;;;;;;5056174;28;45436;-68
2023/10/07 05:36:17;;;;;;;;;24.25;21.00;;;;;;;;5074158;28;45464;-68
2023/10/07 05:38:53;;;;;;;;;21.50;19.50;;;;;;;;5074855;28;45410;-68
2023/10/07 05:41:18;;;;;;;;;19.50;16.75;;;;;;;;5074671;28;45504;-68
2023/10/07 05:43:44;;;;;;;;;25.00;23.00;;;;;;;;5074341;28;45328;-68
2023/10/07 05:46:12;;;;;;;;;22.00;21.00;;;;;;;;5075026;28;45345;-68
2023/10/07 05:48:40;;;;;;;;;19.50;18.75;;;;;;;;5074517;28;45297;-68
2023/10/07 05:51:09;;;;;;;;;16.75;16.25;;;;;;;;5074582;28;45672;-68
2023/10/07 05:53:37;;;;;;;;;19.50;18.25;;;;;;;;5074299;28;45457;-68
2023/10/07 05:56:05;;;;;;;;;21.00;20.00;;;;;;;;5074784;28;45583;-68
2023/10/07 05:58:32;;;;;;;;;19.75;19.75;;;;;;;;5074689;28;45415;-68
2023/10/07 06:00:58;;;;;;;;;17.25;15.75;;;;;;;;5074395;28;46124;-68
2023/10/07 06:03:25;;;;;;;;;18.00;15.50;;;;;;;;5074151;28;45479;-68
2023/10/07 06:05:50;;;;;;;;;19.50;18.25;;;;;;;;5082431;27;45342;-68
2023/10/07 06:08:16;;;;;;;;;22.75;20.00;;;;;;;;5094706;27;45332;-68
2023/10/07 06:10:43;;;;;;;;;23.75;20.00;;;;;;;;5094631;27;45399;-68
2023/10/07 06:13:09;;;;;;;;;22.75;20.25;;;;;;;;5076079;27;45369;-68
2023/10/07 06:15:37;;;;;;;;;19.50;18.00;;;;;;;;5097812;27;45442;-68
2023/10/07 06:18:04;;;;;;;;;24.25;22.75;;;;;;;;5098232;27;45543;-68
2023/10/07 06:20:37;;;;;;;;;20.50;20.50;;;;;;;;5097762;27;46476;-68
2023/10/07 06:23:13;;;;;;;;;22.25;22.25;;;;;;;;5098094;27;45462;-68
2023/10/07 06:25:41;;;;;;;;;29.25;24.25;;;;;;;;5098383;27;45426;-68
2023/10/07 06:28:06;;;;;;;;;22.25;22.25;;;;;;;;5097754;27;45330;-68
2023/10/07 06:30:32;;;;;;;;;23.25;22.25;;;;;;;;5097554;27;45782;-68
2023/10/07 06:32:58;;;;;;;;;16.00;16.00;;;;;;;;5098025;27;45376;-68
2023/10/07 06:35:25;;;;;;;;;25.00;20.25;;;;;;;;5078930;27;45382;-68
2023/10/07 06:37:57;;;;;;;;;25.75;23.25;;;;;;;;5097212;27;45426;-67
2023/10/07 06:40:28;;;;;;;;;25.25;22.75;;;;;;;;5096696;27;45589;-68
2023/10/07 06:42:56;;;;;;;;;18.00;18.00;;;;;;;;5096731;27;45395;-68
2023/10/07 06:45:22;;;;;;;;;24.00;22.50;;;;;;;;5097206;27;45484;-68
2023/10/07 06:47:48;;;;;;;;;27.25;22.75;;;;;;;;5077953;27;45501;-68
2023/10/07 06:50:17;;;;;;;;;22.25;20.75;;;;;;;;5095941;27;46173;-68
2023/10/07 06:52:44;;;;;;;;;25.25;24.50;;;;;;;;5096826;27;45422;-68
2023/10/07 06:55:09;;;;;;;;;29.25;26.25;;;;;;;;5096867;27;45411;-68
2023/10/07 06:57:34;;;;;;;;;21.25;20.25;;;;;;;;5096888;27;45395;-68
2023/10/07 07:00:00;;;;;;;;;22.25;21.25;;;;;;;;5096547;27;46096;-67
2023/10/07 07:02:34;;;;;;;;;23.25;22.50;;;;;;;;5096443;27;45491;-68
2023/10/07 07:05:00;;;;;;;;;27.00;24.75;;;;;;;;5094539;27;45358;-68
2023/10/07 07:07:27;;;;;;;;;21.00;21.00;;;;;;;;5076167;28;45489;-67
2023/10/07 07:09:58;;;;;;;;;27.75;25.50;;;;;;;;5075940;28;46335;-67
2023/10/07 07:12:23;;;;;;;;;24.00;23.25;;;;;;;;5076327;28;45635;-68
2023/10/07 07:14:53;;;;;;;;;22.25;20.75;;;;;;;;5075648;28;45503;-67
2023/10/07 07:22:37;;;;;;;;;23.75;23.50;;;;;;;;5075662;28;45540;-69
2023/10/07 07:25:12;;;;;;;;;22.25;20.25;;;;;;;;5075165;28;45400;-68
2023/10/07 07:27:48;;;;;;;;;26.00;22.50;;;;;;;;5075117;28;45330;-68
2023/10/07 07:30:19;;;;;;;;;21.25;19.25;;;;;;;;5075910;28;46620;-69
2023/10/07 07:32:45;;;;;;;;;21.50;20.50;;;;;;;;5075617;28;45460;-69
2023/10/07 07:35:11;;;;;;;;;21.50;20.50;;;;;;;;5057491;28;45452;-68
2023/10/07 07:37:36;;;;;;;;;22.00;21.25;;;;;;;;5075805;28;45476;-69
2023/10/07 07:43:07;;;;;;;;;22.00;19.75;;;;;;;;4973383;28;45462;-68
2023/10/07 07:45:35;;;;;;;;;19.50;18.00;;;;;;;;4973493;28;45462;-68
2023/10/07 07:48:04;;;;;;;;;22.00;20.75;;;;;;;;5021422;28;45431;-69
2023/10/07 07:50:31;;;;;;;;;26.50;24.25;;;;;;;;5074801;28;46012;-68
2023/10/07 07:52:58;;;;;;;;;22.50;21.50;;;;;;;;5074995;28;45310;-68
2023/10/07 07:55:23;;;;;;;;;24.50;24.50;;;;;;;;5075609;28;45416;-68
2023/10/07 07:57:50;;;;;;;;;30.50;27.75;;;;;;;;5075463;28;45323;-68
2023/10/07 08:00:21;;;;;;;;;29.75;25.75;;;;;;;;5075195;28;46076;-68
2023/10/07 08:02:48;;;;;;;;;18.50;18.00;;;;;;;;5075309;28;45354;-68
2023/10/07 08:05:16;;;;;;;;;19.50;17.75;;;;;;;;5078024;27;45391;-69
2023/10/07 08:07:41;;;;;;;;;21.75;20.75;;;;;;;;5076395;27;45397;-68
2023/10/07 08:10:10;;;;;;;;;25.50;25.50;;;;;;;;5095181;27;46453;-68
2023/10/07 08:12:36;;;;;;;;;25.00;21.75;;;;;;;;5095509;27;45654;-68
2023/10/07 08:15:21;;;;;;;;;25.25;23.25;;;;;;;;5077130;27;45353;-68
2023/10/07 08:17:49;;;;;;;;;19.50;19.50;;;;;;;;5095147;27;45390;-68
2023/10/07 08:20:15;;;;;;;;;22.50;20.50;;;;;;;;5093821;27;45356;-68
2023/10/07 08:22:46;;;;;;;;;12.25;11.25;;;;;;;;5095123;27;45344;-68
2023/10/07 08:28:19;;;;;;;;;24.25;20.50;;;;;;;;5059910;27;45344;-69
2023/10/07 08:30:47;;;;;;;;;21.00;19.00;;;;;;;;5094952;27;46584;-68
2023/10/07 08:33:17;;;;;;;;;22.00;19.20;;;;;;;;5094605;27;45456;-68
2023/10/07 08:35:47;;;;;;;;;19.25;18.50;;;;;;;;5094783;27;45377;-68
2023/10/07 08:38:38;;;;;;;;;15.50;8.25;;;;;;;;5093863;27;45485;-68
2023/10/07 08:41:07;;;;;;;;;23.75;22.75;;;;;;;;5094213;27;45596;-68
2023/10/07 08:43:37;;;;;;;;;18.00;17.00;;;;;;;;5094621;27;45465;-68
2023/10/07 08:46:03;;;;;;;;;22.75;20.50;;;;;;;;5075818;27;45306;-68
2023/10/07 08:48:30;;;;;;;;;18.50;18.50;;;;;;;;5094357;27;45490;-68
2023/10/07 08:50:55;;;;;;;;;13.25;13.25;;;;;;;;5094008;27;45299;-68
2023/10/07 08:53:23;;;;;;;;;18.75;17.50;;;;;;;;5094130;27;45502;-68
2023/10/07 08:55:51;;;;;;;;;15.75;15.25;;;;;;;;5094465;27;45443;-68
2023/10/07 08:58:17;;;;;;;;;17.00;15.50;;;;;;;;5094148;27;45561;-68
2023/10/07 09:00:45;;;;;;;;;21.00;18.00;;;;;;;;5075561;27;45920;-68
2023/10/07 09:03:14;;;;;;;;;19.00;16.50;;;;;;;;5094317;27;45401;-68
2023/10/07 09:05:40;;;;;;;;;17.75;16.00;;;;;;;;5086337;27;45399;-68
2023/10/07 09:08:11;;;;;;;;;16.00;15.00;;;;;;;;5055122;28;45518;-68
2023/10/07 09:10:36;;;;;;;;;19.75;19.75;;;;;;;;5073519;28;45619;-68
2023/10/07 09:13:04;;;;;;;;;15.25;12.75;;;;;;;;5073524;28;45443;-68
2023/10/07 09:15:35;;;;;;;;;15.50;14.25;;;;;;;;5073607;28;45477;-68
2023/10/07 09:18:03;;;;;;;;;17.25;15.75;;;;;;;;5055780;28;45302;-68
2023/10/07 09:20:32;;;;;;;;;19.25;17.75;;;;;;;;5073323;28;45462;-68
2023/10/07 09:23:14;;;;;;;;;16.20;14.60;;;;;;;;5073772;28;45286;-68
2023/10/07 09:25:44;;;;;;;;;23.25;18.00;;;;;;;;5073294;28;45523;-68
2023/10/07 09:28:13;;;;;;;;;11.00;11.00;;;;;;;;5072406;28;45490;-68
2023/10/07 09:33:13;;;;;;;;;16.20;16.20;;;;;;;;5072993;28;45510;-68
2023/10/07 09:35:42;;;;;;;;;17.50;15.25;;;;;;;;5072893;28;45363;-68
2023/10/07 09:38:12;;;;;;;;;15.00;14.00;;;;;;;;5073456;28;45313;-68
2023/10/07 09:43:26;;;;;;;;;10.40;10.40;;;;;;;;5072767;28;45439;-68
2023/10/07 09:45:58;;;;;;;;;14.25;13.00;;;;;;;;5072682;28;45322;-68
2023/10/07 09:48:23;;;;;;;;;18.50;16.25;;;;;;;;5071929;28;45459;-68
2023/10/07 09:50:55;;;;;;;;;12.25;12.00;;;;;;;;5072017;28;45419;-68
2023/10/07 09:53:24;;;;;;;;;16.00;15.60;;;;;;;;5071744;28;45462;-68
2023/10/07 09:56:11;;;;;;;;;13.50;13.50;;;;;;;;5072994;28;45475;-68
2023/10/07 09:58:59;;;;;;;;;15.75;14.50;;;;;;;;5072987;28;45363;-68
2023/10/07 10:01:38;;;;;;;;;15.40;14.00;;;;;;;;5072640;28;45333;-68
2023/10/07 10:04:21;;;;;;;;;13.00;13.00;;;;;;;;5072198;28;45528;-68
2023/10/07 10:07:06;;;;;;;;;15.25;15.00;;;;;;;;5089278;27;45498;-68
2023/10/07 10:09:45;;;;;;;;;10.50;10.50;;;;;;;;5093761;27;45479;-68
2023/10/07 10:12:27;;;;;;;;;11.40;10.00;;;;;;;;5092944;27;45449;-68
2023/10/07 10:15:50;;;;;;;;;11.40;10.60;;;;;;;;5074453;27;45463;-68
2023/10/07 10:17:55;;;;;;;;;9.20;7.20;;;;;;;;5092606;27;45369;-68
2023/10/07 10:20:22;;;;;;;;;12.75;10.75;;;;;;;;5092379;27;45400;-68
2023/10/07 10:22:50;;;;;;;;;14.60;14.40;;;;;;;;5093008;27;45575;-68
2023/10/07 10:25:36;;;;;;;;;8.60;6.40;;;;;;;;5092549;27;45531;-68
2023/10/07 10:28:02;;;;;;;;;11.60;10.20;;;;;;;;5092944;27;45320;-68
2023/10/07 10:30:28;;;;;;;;;12.80;10.40;;;;;;;;5093223;27;45645;-68
2023/10/07 10:32:54;;;;;;;;;13.25;11.25;;;;;;;;5074575;27;46366;-68
2023/10/07 10:35:24;;;;;;;;;13.00;12.60;;;;;;;;5092781;27;45342;-68
2023/10/07 10:37:59;;;;;;;;;14.00;12.60;;;;;;;;5093282;27;45436;-68
2023/10/07 10:40:31;;;;;;;;;14.00;12.75;;;;;;;;5093319;27;45306;-68
2023/10/07 10:42:57;;;;;;;;;15.00;13.00;;;;;;;;5092732;27;45478;-68
2023/10/07 10:45:24;;;;;;;;;13.25;12.00;;;;;;;;5092046;27;45405;-68
2023/10/07 10:47:51;;;;;;;;;14.20;10.60;;;;;;;;5092614;27;45520;-68
2023/10/07 10:50:17;;;;;;;;;14.00;12.00;;;;;;;;5074071;27;46145;-68
2023/10/07 10:52:43;;;;;;;;;14.75;13.50;;;;;;;;5093005;27;46199;-68
2023/10/07 10:55:09;;;;;;;;;8.40;6.00;;;;;;;;5093020;27;45379;-68
2023/10/07 10:57:39;;;;;;;;;14.75;13.75;;;;;;;;5093302;27;45365;-68
2023/10/07 11:00:16;;;;;;;;;12.25;11.50;;;;;;;;5094059;27;45568;-68
2023/10/07 11:02:41;;;;;;;;;11.80;11.40;;;;;;;;5096955;27;46565;-67
2023/10/07 11:05:08;;;;;;;;;13.25;10.75;;;;;;;;5093725;27;45365;-68
2023/10/07 11:07:36;;;;;;;;;10.40;10.40;;;;;;;;5076035;28;45302;-68
2023/10/07 11:10:03;;;;;;;;;14.00;11.00;;;;;;;;5076199;28;45511;-68
2023/10/07 11:12:29;;;;;;;;;10.00;10.00;;;;;;;;5076069;28;45545;-68
2023/10/07 11:15:48;;;;;;;;;9.75;9.25;;;;;;;;5075972;28;45543;-68
2023/10/07 11:17:52;;;;;;;;;9.80;9.60;;;;;;;;5064929;28;45660;-68
2023/10/07 11:20:19;;;;;;;;;10.20;10.20;;;;;;;;5075795;28;45349;-68
2023/10/07 11:22:45;;;;;;;;;9.80;9.00;;;;;;;;5057368;28;47120;-68
2023/10/07 11:25:14;;;;;;;;;9.00;9.00;;;;;;;;5056444;28;45345;-68
2023/10/07 11:27:43;;;;;;;;;9.60;9.40;;;;;;;;5076082;28;45400;-68
2023/10/07 11:30:11;;;;;;;;;11.80;9.60;;;;;;;;5075439;28;45369;-68
2023/10/07 11:32:40;;;;;;;;;11.80;10.60;;;;;;;;5075769;28;46541;-68
2023/10/07 11:35:37;;;;;;;;;11.40;10.20;;;;;;;;5075209;28;45494;-67
2023/10/07 11:38:02;;;;;;;;;13.80;11.80;;;;;;;;5037241;28;45302;-68
2023/10/07 11:40:29;;;;;;;;;9.25;8.75;;;;;;;;5075760;28;45320;-68
2023/10/07 11:42:56;;;;;;;;;11.20;9.60;;;;;;;;5056945;28;47011;-68
2023/10/07 11:45:22;;;;;;;;;9.80;9.80;;;;;;;;5075593;28;45472;-68
2023/10/07 11:47:55;;;;;;;;;14.00;12.00;;;;;;;;5075180;28;45349;-68
2023/10/07 11:50:20;;;;;;;;;12.20;10.40;;;;;;;;5074727;28;45586;-68
2023/10/07 11:52:46;;;;;;;;;11.00;10.50;;;;;;;;5073410;28;45871;-68
2023/10/07 11:55:11;;;;;;;;;12.25;11.00;;;;;;;;5075145;28;45471;-68
2023/10/07 11:57:40;;;;;;;;;12.00;10.25;;;;;;;;5074929;28;45411;-68
2023/10/07 12:00:13;;;;;;;;;18.25;16.25;;;;;;;;5074464;28;45616;-68
2023/10/07 12:02:39;;;;;;;;;12.20;10.00;;;;;;;;5074914;28;45449;-68
2023/10/07 12:05:05;;;;;;;;;11.25;10.25;;;;;;;;5076999;27;45373;-68
2023/10/07 12:07:30;;;;;;;;;14.40;13.80;;;;;;;;5095746;27;45439;-68
2023/10/07 12:09:55;;;;;;;;;8.25;8.25;;;;;;;;5095742;27;45321;-68
2023/10/07 12:12:21;;;;;;;;;13.00;12.00;;;;;;;;5076736;27;45963;-68
2023/10/07 12:14:47;;;;;;;;;12.00;10.50;;;;;;;;5095056;27;45393;-68
2023/10/07 12:17:14;;;;;;;;;12.60;11.40;;;;;;;;5077159;27;45773;-68
2023/10/07 12:19:41;;;;;;;;;10.60;10.00;;;;;;;;5076353;27;45332;-68
2023/10/07 12:22:06;;;;;;;;;10.40;9.20;;;;;;;;5094917;27;46195;-68
2023/10/07 12:24:32;;;;;;;;;12.75;10.00;;;;;;;;5094962;27;45405;-68
2023/10/07 12:26:59;;;;;;;;;13.75;11.25;;;;;;;;5095400;27;45374;-68
2023/10/07 12:29:24;;;;;;;;;11.60;11.60;;;;;;;;5095321;27;45390;-68
2023/10/07 12:31:49;;;;;;;;;8.50;7.50;;;;;;;;5095275;27;45351;-68
2023/10/07 12:34:16;;;;;;;;;9.75;8.75;;;;;;;;5076103;27;45360;-68
2023/10/07 12:36:42;;;;;;;;;8.00;8.00;;;;;;;;5094822;27;45380;-68
2023/10/07 12:39:11;;;;;;;;;11.75;10.00;;;;;;;;5094916;27;45349;-68
2023/10/07 12:41:37;;;;;;;;;8.00;8.00;;;;;;;;5094859;27;46616;-68
2023/10/07 12:44:02;;;;;;;;;8.80;8.80;;;;;;;;5094825;27;45362;-67
2023/10/07 12:46:28;;;;;;;;;11.50;10.75;;;;;;;;5076668;27;45503;-68
2023/10/07 12:48:55;;;;;;;;;10.75;10.75;;;;;;;;5076131;27;45411;-68
2023/10/07 12:51:20;;;;;;;;;10.00;9.20;;;;;;;;5093865;27;45637;-68
2023/10/07 12:53:46;;;;;;;;;13.00;10.75;;;;;;;;5094029;27;45445;-67
2023/10/07 12:56:14;;;;;;;;;12.00;11.25;;;;;;;;5094444;27;45372;-68
2023/10/07 12:58:42;;;;;;;;;9.60;9.20;;;;;;;;5094176;27;45362;-68
2023/10/07 13:01:12;;;;;;;;;12.00;10.40;;;;;;;;5094332;27;46448;-68
2023/10/07 13:03:39;;;;;;;;;11.20;11.20;;;;;;;;5076972;27;45376;-68
2023/10/07 13:06:08;;;;;;;;;10.20;9.40;;;;;;;;5083652;27;45425;-68
2023/10/07 13:08:33;;;;;;;;;12.40;10.20;;;;;;;;5074009;28;45518;-68
2023/10/07 13:10:59;;;;;;;;;11.00;9.00;;;;;;;;5074194;28;47583;-68
2023/10/07 13:13:25;;;;;;;;;10.40;10.40;;;;;;;;5073732;28;45517;-68
2023/10/07 13:15:51;;;;;;;;;12.00;11.00;;;;;;;;5073802;28;45399;-68
2023/10/07 13:18:17;;;;;;;;;10.25;9.25;;;;;;;;5074204;28;45432;-68
2023/10/07 13:20:44;;;;;;;;;13.00;11.50;;;;;;;;5073884;28;45663;-68
2023/10/07 13:23:11;;;;;;;;;10.00;10.00;;;;;;;;5073339;28;45387;-68
2023/10/07 13:25:37;;;;;;;;;12.00;10.40;;;;;;;;5073528;28;45533;-68
2023/10/07 13:28:02;;;;;;;;;13.00;11.50;;;;;;;;5073639;28;45609;-68
2023/10/07 13:30:29;;;;;;;;;12.00;9.75;;;;;;;;5073609;28;46096;-68
2023/10/07 13:32:54;;;;;;;;;11.00;10.00;;;;;;;;5073989;28;45391;-68
2023/10/07 13:35:22;;;;;;;;;11.00;9.75;;;;;;;;5072949;28;45421;-70
2023/10/07 13:37:51;;;;;;;;;12.20;10.00;;;;;;;;5072646;28;45433;-68
2023/10/07 13:40:17;;;;;;;;;12.60;11.80;;;;;;;;5072830;28;45627;-68
2023/10/07 13:42:47;;;;;;;;;14.25;11.50;;;;;;;;5073740;28;45420;-68
2023/10/07 13:45:18;;;;;;;;;11.00;9.20;;;;;;;;5073965;28;45461;-68
2023/10/07 13:47:46;;;;;;;;;12.40;12.20;;;;;;;;5073490;28;45431;-68
2023/10/07 13:50:15;;;;;;;;;13.20;11.60;;;;;;;;5072980;28;46183;-69
2023/10/07 13:52:50;;;;;;;;;12.40;9.60;;;;;;;;5073307;28;45373;-68
2023/10/07 13:55:22;;;;;;;;;11.20;11.20;;;;;;;;5054522;28;45380;-67
2023/10/07 13:57:52;;;;;;;;;12.20;11.40;;;;;;;;5073069;28;45378;-67
2023/10/07 14:00:36;;;;;;;;;13.20;12.60;;;;;;;;5073136;28;46643;-67
2023/10/07 14:03:02;;;;;;;;;8.40;7.20;;;;;;;;5073019;28;45308;-67
2023/10/07 14:05:28;;;;;;;;;9.25;9.25;;;;;;;;5079068;27;45517;-69
2023/10/07 14:07:54;;;;;;;;;13.00;12.40;;;;;;;;5094139;27;45354;-69
2023/10/07 14:10:22;;;;;;;;;11.75;11.75;;;;;;;;5093843;27;47460;-69
2023/10/07 14:12:52;;;;;;;;;11.40;11.00;;;;;;;;5092562;27;45316;-66
2023/10/07 14:15:20;;;;;;;;;10.40;10.40;;;;;;;;5093434;27;45556;-67
2023/10/07 14:17:48;;;;;;;;;9.60;9.40;;;;;;;;5093894;27;45367;-67
2023/10/07 14:20:14;;;;;;;;;11.60;11.60;;;;;;;;5086400;27;45480;-69
2023/10/07 14:22:42;;;;;;;;;7.25;7.25;;;;;;;;5093567;27;45280;-69
2023/10/07 14:25:08;;;;;;;;;11.20;10.20;;;;;;;;5093389;27;45445;-67
2023/10/07 14:27:36;;;;;;;;;14.50;11.00;;;;;;;;5075010;27;45396;-67
2023/10/07 14:30:01;;;;;;;;;10.20;9.80;;;;;;;;5093278;27;45776;-67
2023/10/07 14:32:27;;;;;;;;;9.50;8.25;;;;;;;;5075021;27;45439;-68
2023/10/07 14:34:53;;;;;;;;;13.75;11.25;;;;;;;;5093609;27;45333;-67
2023/10/07 14:37:21;;;;;;;;;11.80;10.80;;;;;;;;5096890;27;45338;-67
2023/10/07 14:39:51;;;;;;;;;9.60;8.00;;;;;;;;5096957;27;46179;-67
2023/10/07 14:42:16;;;;;;;;;11.20;10.20;;;;;;;;5097010;27;45476;-68
2023/10/07 14:44:42;;;;;;;;;10.80;10.40;;;;;;;;5096983;27;45360;-67
2023/10/07 14:47:08;;;;;;;;;9.25;8.75;;;;;;;;5077960;27;45399;-67
2023/10/07 14:49:36;;;;;;;;;9.50;6.50;;;;;;;;5096092;27;46341;-67
2023/10/07 14:52:01;;;;;;;;;13.20;11.40;;;;;;;;5096499;27;45539;-67
2023/10/07 14:54:26;;;;;;;;;10.50;8.75;;;;;;;;5096858;27;45295;-67
2023/10/07 14:56:52;;;;;;;;;13.00;8.75;;;;;;;;5096692;27;45606;-67
2023/10/07 14:59:19;;;;;;;;;11.00;10.00;;;;;;;;5077069;27;46767;-67
2023/10/07 15:01:44;;;;;;;;;11.00;10.00;;;;;;;;5095858;27;45379;-67
2023/10/07 15:04:10;;;;;;;;;12.25;9.50;;;;;;;;5096216;27;45428;-67
2023/10/07 15:06:36;;;;;;;;;10.20;10.20;;;;;;;;5080536;27;45514;-67
2023/10/07 15:09:01;;;;;;;;;11.25;8.75;;;;;;;;5075560;28;45337;-67